Airfield :
LOGIN :

Register | Disclaimer

   EN    FR    IT 

 










Legend :    VFR   Marginal VFR   IFR   Intensive IFR   Very Intensive IFR
Visi :
Ceiling :
>= 8 km
>= 3000ft
5 to 8 km
1000 to 3000 ft
1500m to 5 km
500 to 1000 ft
800 to 1500m
200 to 500 ft
< 800m
< 200 ft
Symbols :   Thunderstorms  Fog  Heavy snow  Heavy precipitations  Wind > 20 kt
SIGMETs :     Misc.  Thunderstorms  Icing  Turbulence  Mountain Waves  Volcanic Ashes







- Airport Elevation : 74 ft
- IATA code : EIN


EHEH - Eindhoven

CURRENT METAR :
  • 200755Z AUTO 04004KT 360V110 9999 NCD 18/05 Q1029 BLU 06006KT CAVOK

EXPIRED METARs :
  • 200725Z AUTO 05004KT 360V090 9999 NCD 17/05 Q1029 BLU 06006KT CAVOK
  • 200655Z AUTO 06004KT 020V090 9999 NCD 15/05 Q1029 BLU 06006KT CAVOK
  • 200625Z AUTO 03004KT 9999 NCD 14/06 Q1029 BLU 05006KT CAVOK
  • 200555Z AUTO 05005KT 340V110 9999 NCD 12/05 Q1029 BLU 05006KT CAVOK
  • 200525Z AUTO 05005KT 010V070 9999 NCD 11/05 Q1029 BLU 05006KT CAVOK

TAF TAF EHEH
Valid from the 20 at 06:00 until the 21 at 12:00 UTC


200507Z 2006/2112 05007KT CAVOK
No reported NOTAMs for that airfield.



MET'MAP, your aeronautical weather chart ! - Copyright ORBIFLY December 2007 - Disclaimer

ORBIFLY MET'MAP TEAM :

Programming & Development : Alexandra Zaïnal
Concept & Development : Baudouin d'Aumeries
Co-Development & Prog : Marc-Olivier Méhu
Technical & hardware support : Manuel Goepfert

Contact : metmap@orbifly.com




SOURCES & CREDITS :

   NOAA